Avon, Iowa
Current Conditions -  °F | °C
As of 3:09 PM on Friday 24 Oct 2014 (Local Time) from KDSM Reporting Station
Haze Haze  
Wind Chill: 66°   Ceiling: 25000
Heat Index: 66°   Visibility: 6mi
Dew Point: 61°   Wind: 12mph
Humidity: 84%   Direction: 210°SSW
Pressure: 29.89"   Gusts: NA
Location:  41.4707°N, 93.4797°W
Report Text: KDSM 242009Z 21010KT 6SM HZ SCT013 SCT019 OVC250 19/16 A2989 RMK AO2 T01890161
Loading
Personal Weather Stations






























Interactive Weather Map
Tropical Storm Tracking
New forecast layout! Learn more

10-Day Weather Forecast

Advertisements
Track Severe Weather on mobile